Time;durP1;ratioP1;P1;durP2;ratioP2;P2;SDS_P1;SDS_P2;PMS_P1;PMS_P2;Temp;Humidity;BMP_temperature;BMP_pressure;BME280_temperature;BME280_humidity;BME280_pressure;Samples;Min_cycle;Max_cycle;Signal;HPM_P1;HPM_P2
2022/07/14 00:00:20;;;;;;;;;;;;;;;17.79;71.69;99725.66;1673808;84;21136;-69
2022/07/14 00:02:47;;;;;;;;;;;;;;;17.83;71.74;99731.20;1671873;84;20169;-67
2022/07/14 00:05:13;;;;;;;;;;;;;;;17.85;71.75;99729.53;1674542;84;20220;-66
2022/07/14 00:07:42;;;;;;;;;;;;;;;17.87;71.92;99736.20;1673482;84;20375;-66
2022/07/14 00:10:09;;;;;;;;;;;;;;;17.88;71.78;99733.72;1673500;84;20215;-66
2022/07/14 00:12:35;;;;;;;;;;;;;;;17.90;71.63;99737.44;1674255;84;21886;-67
2022/07/14 00:15:03;;;;;;;;;;;;;;;17.90;71.52;99732.03;1673782;85;20149;-68
2022/07/14 00:17:30;;;;;;;;;;;;;;;17.87;71.50;99736.73;1670431;86;20169;-67
2022/07/14 00:19:57;;;;;;;;;;;;;;;17.86;71.51;99737.86;1674655;85;20137;-69
2022/07/14 00:22:24;;;;;;;;;;;;;;;17.85;71.65;99743.04;1685898;84;20208;-66
2022/07/14 00:24:50;;;;;;;;;;;;;;;17.84;71.77;99746.30;1673080;84;21814;-66
2022/07/14 00:27:17;;;;;;;;;;;;;;;17.85;71.73;99732.23;1673407;84;20149;-66
2022/07/14 00:29:43;;;;;;;;;;;;;;;17.81;71.70;99740.98;1673809;84;20417;-67
2022/07/14 00:32:09;;;;;;;;;;;;;;;17.80;71.74;99742.64;1673857;84;20239;-68
2022/07/14 00:34:37;;;;;;;;;;;;;;;17.79;71.78;99743.77;1645894;84;20180;-67
2022/07/14 00:37:04;;;;;;;;;;;;;;;17.53;72.33;99755.43;1675144;84;21787;-67
2022/07/14 00:39:54;;;;;;;;;;;;;;;17.40;73.00;99748.89;1664202;85;20158;-68
2022/07/14 00:41:59;;;;;;;;;;;;;;;17.39;73.31;99750.80;1643419;87;20160;-67
2022/07/14 00:44:26;;;;;;;;;;;;;;;17.44;73.55;99751.98;1646279;87;20224;-67
2022/07/14 00:46:52;;;;;;;;;;;;;;;17.43;73.51;99749.03;1649787;84;20174;-67
2022/07/14 00:49:36;;;;;;;;;;;;;;;17.42;73.56;99750.16;1670907;84;21808;-66
2022/07/14 00:52:03;;;;;;;;;;;;;;;17.40;73.55;99752.94;1674537;84;20171;-67
2022/07/14 00:54:30;;;;;;;;;;;;;;;17.41;73.71;99774.79;1660505;84;20493;-67
2022/07/14 00:56:56;;;;;;;;;;;;;;;17.36;73.70;99748.74;1646935;87;20152;-67
2022/07/14 00:59:23;;;;;;;;;;;;;;;17.35;73.75;99748.52;1653657;84;20153;-68
2022/07/14 01:01:49;;;;;;;;;;;;;;;17.37;74.02;99746.27;1671872;84;21564;-67
2022/07/14 01:04:16;;;;;;;;;;;;;;;17.39;74.13;99758.89;1674603;84;20196;-67
2022/07/14 01:06:44;;;;;;;;;;;;;;;17.40;74.11;99759.69;1673750;84;20145;-67
2022/07/14 01:09:11;;;;;;;;;;;;;;;17.36;74.17;99759.53;1674041;84;20164;-67
2022/07/14 01:11:39;;;;;;;;;;;;;;;17.35;74.42;99759.31;1674484;84;20142;-67
2022/07/14 01:14:09;;;;;;;;;;;;;;;17.34;74.69;99756.36;1674128;84;21040;-68
2022/07/14 01:16:36;;;;;;;;;;;;;;;17.32;74.89;99760.73;1673395;84;20490;-67
2022/07/14 01:19:04;;;;;;;;;;;;;;;17.30;75.14;99760.26;1675103;85;20205;-67
2022/07/14 01:21:42;;;;;;;;;;;;;;;17.32;75.28;99762.66;1673702;84;20441;-67
2022/07/14 01:24:11;;;;;;;;;;;;;;;17.29;75.21;99766.78;1673345;84;20242;-67
2022/07/14 01:26:44;;;;;;;;;;;;;;;17.61;74.12;99770.59;1669694;86;21109;-66
2022/07/14 01:29:15;;;;;;;;;;;;;;;17.71;73.31;99780.48;1669663;86;20247;-67
2022/07/14 01:31:46;;;;;;;;;;;;;;;17.74;72.89;99776.35;1668658;85;20189;-67
2022/07/14 01:34:22;;;;;;;;;;;;;;;17.75;72.73;99777.36;1670236;85;20642;-66
2022/07/14 01:36:54;;;;;;;;;;;;;;;17.74;72.62;99776.35;1652293;85;20145;-68
2022/07/14 01:39:31;;;;;;;;;;;;;;;17.25;73.96;99767.75;1634924;86;20714;-67
2022/07/14 01:42:08;;;;;;;;;;;;;;;17.18;74.53;99772.84;1658499;85;20146;-67
2022/07/14 01:44:45;;;;;;;;;;;;;;;17.14;74.94;99781.33;1637210;85;20269;-67
2022/07/14 01:47:16;;;;;;;;;;;;;;;17.09;74.97;99776.34;1648836;86;20128;-68
2022/07/14 01:49:43;;;;;;;;;;;;;;;17.08;75.16;99789.60;1658457;86;20179;-66
2022/07/14 01:52:18;;;;;;;;;;;;;;;17.08;75.16;99786.91;1657785;85;21342;-67
2022/07/14 01:54:52;;;;;;;;;;;;;;;17.45;74.03;99784.61;1641362;85;20151;-67
2022/07/14 01:57:28;;;;;;;;;;;;;;;17.22;74.25;99785.93;1653330;85;20145;-67
2022/07/14 02:00:06;;;;;;;;;;;;;;;17.11;74.52;99802.45;1627143;86;20167;-67
2022/07/14 02:02:47;;;;;;;;;;;;;;;17.38;73.66;99798.38;1658172;86;20214;-66
2022/07/14 02:05:17;;;;;;;;;;;;;;;17.36;73.47;99794.63;1644986;85;21178;-67
2022/07/14 02:08:03;;;;;;;;;;;;;;;17.14;74.36;99804.26;1631788;88;20495;-67
2022/07/14 02:13:36;;;;;;;;;;;;;;;17.13;74.66;99807.52;1634752;86;20133;-67
2022/07/14 02:16:15;;;;;;;;;;;;;;;17.16;74.42;99804.75;1658662;85;20151;-67
2022/07/14 02:18:54;;;;;;;;;;;;;;;17.16;74.51;99812.84;1658492;86;21274;-67
2022/07/14 02:21:21;;;;;;;;;;;;;;;17.16;74.56;99808.80;1658606;85;20190;-67
2022/07/14 02:23:50;;;;;;;;;;;;;;;17.14;74.26;99813.70;1673975;85;20153;-67
2022/07/14 02:26:17;;;;;;;;;;;;;;;17.14;74.35;99823.15;1665841;85;20253;-67
2022/07/14 02:28:44;;;;;;;;;;;;;;;17.10;74.31;99829.18;1659305;85;20158;-68
2022/07/14 02:31:11;;;;;;;;;;;;;;;17.05;74.52;99840.15;1665152;85;21160;-67
2022/07/14 02:33:39;;;;;;;;;;;;;;;16.99;74.76;99836.58;1658337;86;20159;-67
2022/07/14 02:36:06;;;;;;;;;;;;;;;16.96;74.77;99845.30;1658175;85;20151;-68
2022/07/14 02:38:32;;;;;;;;;;;;;;;16.93;74.91;99846.72;1659215;86;20154;-68
2022/07/14 02:40:59;;;;;;;;;;;;;;;16.94;75.01;99851.00;1658441;85;20201;-68
2022/07/14 02:43:26;;;;;;;;;;;;;;;16.98;74.99;99849.80;1657811;85;21105;-68
2022/07/14 02:45:53;;;;;;;;;;;;;;;16.99;74.73;99860.30;1657753;85;20579;-66
2022/07/14 02:48:19;;;;;;;;;;;;;;;17.01;74.75;99857.27;1657204;85;20191;-67
2022/07/14 02:50:46;;;;;;;;;;;;;;;17.01;74.83;99855.39;1656586;85;20197;-68
2022/07/14 02:53:12;;;;;;;;;;;;;;;17.00;74.72;99861.08;1658194;85;20158;-66
2022/07/14 02:55:40;;;;;;;;;;;;;;;16.99;74.78;99857.59;1633285;86;20561;-67
2022/07/14 02:58:07;;;;;;;;;;;;;;;17.00;74.83;99863.78;1657751;85;20207;-66
2022/07/14 03:00:34;;;;;;;;;;;;;;;16.97;75.02;99861.16;1657634;85;20214;-66
2022/07/14 03:03:02;;;;;;;;;;;;;;;16.93;75.14;99857.52;1657839;85;20190;-66
2022/07/14 03:05:28;;;;;;;;;;;;;;;16.86;75.21;99863.94;1655541;85;20183;-66
2022/07/14 03:07:57;;;;;;;;;;;;;;;16.84;75.36;99869.63;1659223;86;21151;-67
2022/07/14 03:10:23;;;;;;;;;;;;;;;16.84;75.57;99874.23;1659005;86;20154;-66
2022/07/14 03:12:50;;;;;;;;;;;;;;;16.81;75.81;99872.16;1657293;85;20210;-68
2022/07/14 03:15:20;;;;;;;;;;;;;;;16.83;76.01;99882.09;1657360;85;20182;-67
2022/07/14 03:17:46;;;;;;;;;;;;;;;16.82;75.93;99885.35;1658103;85;20154;-68
2022/07/14 03:20:13;;;;;;;;;;;;;;;16.79;75.93;99876.53;1659139;85;21071;-68
2022/07/14 03:22:40;;;;;;;;;;;;;;;16.78;76.18;99884.40;1659048;85;20147;-67
2022/07/14 03:25:09;;;;;;;;;;;;;;;16.80;76.27;99882.72;1656707;85;20668;-67
2022/07/14 03:27:38;;;;;;;;;;;;;;;16.81;76.12;99889.70;1657855;85;20164;-68
2022/07/14 03:30:06;;;;;;;;;;;;;;;16.83;76.15;99885.58;1657373;85;20154;-68
2022/07/14 03:32:32;;;;;;;;;;;;;;;16.91;76.08;99885.34;1630628;85;21130;-66
2022/07/14 03:35:05;;;;;;;;;;;;;;;16.91;75.67;99896.13;1657144;85;20460;-67
2022/07/14 03:37:34;;;;;;;;;;;;;;;16.92;75.48;99896.95;1657973;85;20151;-68
2022/07/14 03:40:06;;;;;;;;;;;;;;;16.92;75.51;99909.88;1657487;85;21280;-67
2022/07/14 03:42:33;;;;;;;;;;;;;;;16.95;75.48;99924.65;1657610;85;20201;-66
2022/07/14 03:44:59;;;;;;;;;;;;;;;16.96;75.31;99917.58;1629478;85;21089;-69
2022/07/14 03:47:26;;;;;;;;;;;;;;;16.93;75.09;99919.55;1655149;85;20136;-67
2022/07/14 03:49:54;;;;;;;;;;;;;;;17.25;73.99;99916.98;1657082;85;20182;-67
2022/07/14 03:52:21;;;;;;;;;;;;;;;17.27;73.80;99918.00;1657568;85;20155;-67
2022/07/14 03:54:49;;;;;;;;;;;;;;;17.40;73.35;99921.09;1657348;86;20143;-67
2022/07/14 03:57:17;;;;;;;;;;;;;;;17.40;72.72;99930.55;1657455;85;21509;-68
2022/07/14 03:59:43;;;;;;;;;;;;;;;17.43;72.72;99916.41;1657614;85;20469;-67
2022/07/14 04:02:11;;;;;;;;;;;;;;;17.42;72.27;99929.68;1627669;85;20426;-70
2022/07/14 04:04:39;;;;;;;;;;;;;;;17.47;72.44;99947.61;1657608;85;20147;-68
2022/07/14 04:07:07;;;;;;;;;;;;;;;17.46;72.07;99920.39;1657831;85;20154;-67
2022/07/14 04:09:34;;;;;;;;;;;;;;;17.50;71.83;99935.62;1657666;85;21171;-67
2022/07/14 04:12:01;;;;;;;;;;;;;;;17.55;71.55;99917.13;1658729;85;20163;-68
2022/07/14 04:14:30;;;;;;;;;;;;;;;17.57;71.17;99920.29;1656391;85;20532;-67
2022/07/14 04:16:57;;;;;;;;;;;;;;;17.56;71.19;99915.45;1657172;85;20151;-67
2022/07/14 04:19:24;;;;;;;;;;;;;;;17.65;71.12;99922.77;1629888;85;20520;-68
2022/07/14 04:21:51;;;;;;;;;;;;;;;17.72;71.02;99927.13;1654724;85;20951;-66
2022/07/14 04:24:18;;;;;;;;;;;;;;;17.79;70.91;99926.10;1605100;88;20194;-66
2022/07/14 04:26:45;;;;;;;;;;;;;;;17.88;70.50;99932.29;1629502;88;20255;-67
2022/07/14 04:29:13;;;;;;;;;;;;;;;18.00;70.39;99936.48;1672423;85;20200;-67
2022/07/14 04:31:42;;;;;;;;;;;;;;;18.12;70.23;99939.06;1658149;86;20168;-68
2022/07/14 04:34:11;;;;;;;;;;;;;;;17.97;70.39;99942.53;1658502;86;21168;-67
2022/07/14 04:36:37;;;;;;;;;;;;;;;17.92;70.08;99940.55;1659191;86;20227;-67
2022/07/14 04:39:06;;;;;;;;;;;;;;;17.95;69.86;99946.09;1658346;86;20466;-67
2022/07/14 04:41:36;;;;;;;;;;;;;;;18.01;70.03;99952.14;1658746;86;20193;-66
2022/07/14 04:44:03;;;;;;;;;;;;;;;18.11;70.23;99953.14;1657705;86;20274;-67
2022/07/14 04:46:30;;;;;;;;;;;;;;;18.22;69.71;99961.69;1657883;86;21814;-67
2022/07/14 04:52:03;;;;;;;;;;;;;;;18.37;68.14;99957.13;1632782;88;20158;-66
2022/07/14 04:54:33;;;;;;;;;;;;;;;18.39;67.74;99958.92;1631848;88;20153;-67
2022/07/14 04:57:11;;;;;;;;;;;;;;;18.41;67.19;99963.46;1630642;88;20443;-66
2022/07/14 04:59:39;;;;;;;;;;;;;;;18.39;67.34;99980.55;1631915;88;21181;-67
2022/07/14 05:02:07;;;;;;;;;;;;;;;18.37;67.47;99976.05;1632421;88;20152;-67
2022/07/14 05:04:35;;;;;;;;;;;;;;;18.36;67.30;99977.17;1647288;86;20175;-67
2022/07/14 05:07:04;;;;;;;;;;;;;;;18.37;67.19;99980.67;1659080;85;20254;-67
2022/07/14 05:09:33;;;;;;;;;;;;;;;18.37;67.19;99984.16;1658236;86;20453;-67
2022/07/14 05:12:02;;;;;;;;;;;;;;;18.38;67.26;99985.73;1659276;86;21135;-67
2022/07/14 05:14:30;;;;;;;;;;;;;;;18.41;67.03;99989.15;1659039;86;20194;-67
2022/07/14 05:16:57;;;;;;;;;;;;;;;18.48;67.24;100000.81;1658862;85;20210;-66
2022/07/14 05:19:24;;;;;;;;;;;;;;;18.56;67.00;100002.72;1657209;85;20144;-66
2022/07/14 05:21:53;;;;;;;;;;;;;;;18.64;66.87;100005.14;1658513;85;20155;-67
2022/07/14 05:24:20;;;;;;;;;;;;;;;18.72;66.55;99997.03;1657747;85;21703;-67
2022/07/14 05:26:48;;;;;;;;;;;;;;;18.81;66.66;100007.02;1657379;85;20170;-67
2022/07/14 05:29:17;;;;;;;;;;;;;;;18.89;66.46;100004.84;1657102;85;20527;-68
2022/07/14 05:31:44;;;;;;;;;;;;;;;18.95;66.07;100011.62;1658325;85;20233;-67
2022/07/14 05:34:11;;;;;;;;;;;;;;;18.94;65.21;100011.41;1657073;85;20249;-67
2022/07/14 05:36:38;;;;;;;;;;;;;;;18.87;65.13;100007.86;1657640;85;21149;-66
2022/07/14 05:39:04;;;;;;;;;;;;;;;18.84;65.08;100001.74;1657627;85;20197;-67
2022/07/14 05:41:31;;;;;;;;;;;;;;;18.82;65.14;100004.00;1655281;85;20219;-67
2022/07/14 05:43:58;;;;;;;;;;;;;;;18.84;64.98;100005.02;1657553;85;21017;-67
2022/07/14 05:46:24;;;;;;;;;;;;;;;18.86;64.88;100021.16;1657655;85;20184;-66
2022/07/14 05:48:52;;;;;;;;;;;;;;;18.94;64.83;100017.61;1657340;85;21160;-67
2022/07/14 05:51:20;;;;;;;;;;;;;;;19.06;63.93;100020.19;1658778;85;20433;-67
2022/07/14 05:53:49;;;;;;;;;;;;;;;19.12;64.32;100014.27;1658002;86;20489;-68
2022/07/14 05:56:18;;;;;;;;;;;;;;;19.24;64.05;100020.88;1657210;86;20464;-67
2022/07/14 05:58:46;;;;;;;;;;;;;;;19.34;63.79;100019.92;1657642;85;20154;-68
2022/07/14 06:01:13;;;;;;;;;;;;;;;19.39;63.56;100016.25;1657567;85;21463;-66
2022/07/14 06:03:40;;;;;;;;;;;;;;;19.47;63.27;100014.02;1657696;85;20237;-69
2022/07/14 06:06:09;;;;;;;;;;;;;;;19.56;62.84;100016.69;1657319;85;20185;-67
2022/07/14 06:08:36;;;;;;;;;;;;;;;19.63;62.78;100015.59;1658005;85;20253;-68
2022/07/14 06:11:03;;;;;;;;;;;;;;;19.72;62.71;100008.22;1654673;85;20182;-68
2022/07/14 06:13:30;;;;;;;;;;;;;;;19.87;62.08;100010.87;1630355;85;21035;-67
2022/07/14 06:15:59;;;;;;;;;;;;;;;20.03;61.60;100017.26;1657123;85;20203;-66
2022/07/14 06:18:28;;;;;;;;;;;;;;;20.18;60.74;100016.42;1658517;85;20164;-68
2022/07/14 06:20:55;;;;;;;;;;;;;;;20.26;60.21;100017.67;1659015;86;20151;-67
2022/07/14 06:23:24;;;;;;;;;;;;;;;20.33;60.02;100019.27;1658085;85;20155;-68
2022/07/14 06:25:50;;;;;;;;;;;;;;;20.40;59.99;100025.53;1654727;85;21247;-67
2022/07/14 06:28:19;;;;;;;;;;;;;;;20.76;58.70;100016.67;1655115;85;20139;-67
2022/07/14 06:30:48;;;;;;;;;;;;;;;20.44;59.29;100027.79;1657833;85;20206;-68
2022/07/14 06:33:16;;;;;;;;;;;;;;;20.44;59.99;100023.72;1657387;85;20532;-68
2022/07/14 06:35:43;;;;;;;;;;;;;;;20.44;60.08;100022.94;1642639;85;20460;-67
2022/07/14 06:38:10;;;;;;;;;;;;;;;20.53;59.23;100023.64;1631421;88;21151;-68
2022/07/14 06:40:39;;;;;;;;;;;;;;;20.53;58.59;100026.34;1652364;86;20203;-68
2022/07/14 06:43:06;;;;;;;;;;;;;;;20.51;58.98;100021.27;1652666;85;20217;-68
2022/07/14 06:45:50;;;;;;;;;;;;;;;20.58;59.00;100023.43;1653856;85;20549;-68
2022/07/14 06:48:18;;;;;;;;;;;;;;;20.67;59.15;100027.41;1656578;85;20185;-67
2022/07/14 06:50:49;;;;;;;;;;;;;;;20.80;58.53;100018.94;1643120;85;21151;-68
2022/07/14 06:53:16;;;;;;;;;;;;;;;20.91;58.39;100020.63;1657950;86;20547;-67
2022/07/14 06:55:46;;;;;;;;;;;;;;;21.03;57.74;100023.92;1657911;85;20567;-68
2022/07/14 06:58:13;;;;;;;;;;;;;;;;;;1657925;86;20131;-68
2022/07/14 07:00:41;;;;;;;;;;;;;;;21.21;57.40;100017.67;1658721;86;20169;-68
2022/07/14 07:03:17;;;;;;;;;;;;;;;21.24;56.40;100017.78;1658531;85;21321;-67
2022/07/14 07:08:53;;;;;;;;;;;;;;;21.16;56.60;100020.06;1611575;88;20160;-67
2022/07/14 07:11:49;;;;;;;;;;;;;;;21.17;55.79;100016.78;1632824;85;20224;-67
2022/07/14 07:14:19;;;;;;;;;;;;;;;21.15;55.90;100027.97;1657657;85;20184;-67
2022/07/14 07:16:56;;;;;;;;;;;;;;;21.21;56.09;100025.25;1658759;85;21840;-68
2022/07/14 07:19:33;;;;;;;;;;;;;;;21.30;55.64;100023.78;1640712;85;20478;-68
2022/07/14 07:22:03;;;;;;;;;;;;;;;21.40;55.61;100029.34;1658667;85;20219;-67
2022/07/14 07:24:30;;;;;;;;;;;;;;;21.48;55.00;100031.12;1664553;85;20481;-67
2022/07/14 07:26:56;;;;;;;;;;;;;;;21.48;54.44;100025.69;1661369;85;20182;-67
2022/07/14 07:29:24;;;;;;;;;;;;;;;21.50;54.92;100032.94;1657057;85;20202;-67
2022/07/14 07:31:50;;;;;;;;;;;;;;;21.53;54.11;100034.97;1658201;85;20675;-66
2022/07/14 07:34:17;;;;;;;;;;;;;;;21.58;54.25;100030.64;1658304;85;20185;-68
2022/07/14 07:36:43;;;;;;;;;;;;;;;21.68;54.58;100034.23;1657086;85;20560;-68
2022/07/14 07:39:10;;;;;;;;;;;;;;;21.77;54.68;100032.17;1657499;85;20320;-68
2022/07/14 07:41:37;;;;;;;;;;;;;;;21.84;53.71;100037.59;1657455;85;21988;-68
2022/07/14 07:44:04;;;;;;;;;;;;;;;21.87;53.70;100030.11;1654449;85;20178;-67
2022/07/14 07:46:31;;;;;;;;;;;;;;;21.86;53.82;100025.25;1657664;85;20484;-68
2022/07/14 07:48:57;;;;;;;;;;;;;;;21.84;53.15;100024.00;1658798;85;20202;-67
2022/07/14 07:51:24;;;;;;;;;;;;;;;21.86;53.38;100032.61;1656495;85;20218;-67
2022/07/14 07:53:50;;;;;;;;;;;;;;;21.95;52.98;100021.03;1656805;85;22267;-68
2022/07/14 07:56:17;;;;;;;;;;;;;;;22.10;52.54;100022.98;1657744;85;20182;-67
2022/07/14 07:58:44;;;;;;;;;;;;;;;22.32;51.32;100026.31;1657117;85;20164;-68
2022/07/14 08:01:11;;;;;;;;;;;;;;;22.53;51.94;100017.33;1655557;85;20445;-67
2022/07/14 08:03:38;;;;;;;;;;;;;;;22.69;51.13;100022.78;1658498;85;20194;-68
2022/07/14 08:06:05;;;;;;;;;;;;;;;22.77;51.07;100026.45;1657031;85;21289;-67
2022/07/14 08:08:32;;;;;;;;;;;;;;;22.78;50.15;100026.69;1657557;85;20513;-67
2022/07/14 08:10:59;;;;;;;;;;;;;;;22.82;50.55;100027.56;1657952;85;20195;-67
2022/07/14 08:13:26;;;;;;;;;;;;;;;22.84;50.84;100036.19;1654819;85;20155;-67
2022/07/14 08:15:52;;;;;;;;;;;;;;;22.93;50.93;100032.71;1657307;85;20177;-67
2022/07/14 08:18:19;;;;;;;;;;;;;;;23.05;50.30;100031.83;1654217;85;21092;-67
2022/07/14 08:20:45;;;;;;;;;;;;;;;23.19;49.97;100034.88;1657599;85;20212;-68
2022/07/14 08:23:15;;;;;;;;;;;;;;;23.28;49.69;100034.69;1656283;85;20224;-67
2022/07/14 08:25:42;;;;;;;;;;;;;;;23.31;48.60;100033.41;1657546;85;20175;-68
2022/07/14 08:28:09;;;;;;;;;;;;;;;23.37;48.33;100036.08;1630128;85;20551;-67
2022/07/14 08:30:35;;;;;;;;;;;;;;;23.44;48.19;100036.02;1636864;85;21153;-67
2022/07/14 08:33:03;;;;;;;;;;;;;;;23.39;48.03;100038.44;1631005;88;20149;-67
2022/07/14 08:35:30;;;;;;;;;;;;;;;23.56;48.10;100032.59;1646851;85;20198;-68
2022/07/14 08:37:56;;;;;;;;;;;;;;;23.75;48.25;100031.83;1659111;85;20202;-67
2022/07/14 08:40:25;;;;;;;;;;;;;;;23.45;48.63;100030.20;1659486;86;20441;-68
2022/07/14 08:42:54;;;;;;;;;;;;;;;23.38;49.25;100031.41;1658538;85;21314;-67
2022/07/14 08:45:24;;;;;;;;;;;;;;;23.39;48.86;100031.05;1657575;85;20218;-67
2022/07/14 08:47:52;;;;;;;;;;;;;;;23.44;49.52;100031.93;1655365;85;20186;-68
2022/07/14 08:50:21;;;;;;;;;;;;;;;23.54;49.16;100038.97;1657807;85;20191;-67
2022/07/14 08:52:48;;;;;;;;;;;;;;;23.67;49.04;100038.84;1657467;85;20187;-67
2022/07/14 08:55:17;;;;;;;;;;;;;;;23.71;49.75;100035.64;1657142;85;20736;-67
2022/07/14 08:57:44;;;;;;;;;;;;;;;23.77;48.95;100038.30;1658258;85;20211;-67
2022/07/14 09:00:13;;;;;;;;;;;;;;;24.01;48.46;100045.39;1657066;85;20178;-68
2022/07/14 09:02:41;;;;;;;;;;;;;;;23.94;48.23;100041.95;1654621;85;20437;-68
2022/07/14 09:05:07;;;;;;;;;;;;;;;24.06;48.36;100036.94;1657695;85;20231;-68
2022/07/14 09:07:38;;;;;;;;;;;;;;;24.23;47.87;100038.41;1657650;85;21083;-67
2022/07/14 09:10:08;;;;;;;;;;;;;;;24.28;47.39;100036.19;1656619;85;20226;-68
2022/07/14 09:12:35;;;;;;;;;;;;;;;24.27;47.51;100040.63;1657730;85;20147;-68
2022/07/14 09:17:56;;;;;;;;;;;;;;;24.23;48.55;100047.39;1658927;85;20146;-67
2022/07/14 09:20:25;;;;;;;;;;;;;;;24.28;47.04;100044.92;1658509;86;21177;-68
2022/07/14 09:22:58;;;;;;;;;;;;;;;24.27;46.24;100044.14;1657558;85;20571;-67
2022/07/14 09:25:25;;;;;;;;;;;;;;;24.30;46.66;100037.18;1656881;85;20166;-68
2022/07/14 09:27:51;;;;;;;;;;;;;;;24.43;46.92;100048.17;1659337;86;20291;-67
2022/07/14 09:30:20;;;;;;;;;;;;;;;24.57;47.00;100042.95;1662320;85;20203;-68
2022/07/14 09:32:51;;;;;;;;;;;;;;;24.56;46.40;100035.92;1657821;85;21107;-68
2022/07/14 09:35:22;;;;;;;;;;;;;;;24.53;46.24;100041.32;1655338;85;20178;-68
2022/07/14 09:37:50;;;;;;;;;;;;;;;24.48;46.18;100039.70;1657935;85;20131;-67
2022/07/14 09:40:22;;;;;;;;;;;;;;;24.52;46.76;100046.00;1658986;86;20666;-68
2022/07/14 09:42:57;;;;;;;;;;;;;;;24.69;47.04;100042.57;1658764;85;20144;-68
2022/07/14 09:45:27;;;;;;;;;;;;;;;24.80;46.14;100057.18;1657585;85;21097;-67
2022/07/14 09:47:58;;;;;;;;;;;;;;;24.79;45.82;100047.42;1659207;86;20178;-67
2022/07/14 09:50:42;;;;;;;;;;;;;;;24.71;46.20;100053.91;1658856;86;20143;-67
2022/07/14 09:53:11;;;;;;;;;;;;;;;24.76;45.84;100046.78;1657733;85;20194;-67
2022/07/14 09:55:39;;;;;;;;;;;;;;;24.96;45.39;100049.64;1659160;86;20147;-68
2022/07/14 09:58:07;;;;;;;;;;;;;;;25.15;44.92;100041.17;1659295;86;21174;-68
2022/07/14 10:01:02;;;;;;;;;;;;;;;25.19;45.36;100040.06;1658837;86;20135;-67
2022/07/14 10:03:31;;;;;;;;;;;;;;;25.14;44.73;100040.95;1659216;86;20179;-68
2022/07/14 10:06:00;;;;;;;;;;;;;;;25.13;44.72;100038.80;1659107;86;20150;-67
2022/07/14 10:08:28;;;;;;;;;;;;;;;25.00;44.55;100049.11;1659519;86;20147;-68
2022/07/14 10:10:55;;;;;;;;;;;;;;;24.88;45.28;100058.89;1658725;86;21817;-67
2022/07/14 10:13:22;;;;;;;;;;;;;;;24.89;45.40;100054.99;1658601;86;20184;-68
2022/07/14 10:15:49;;;;;;;;;;;;;;;24.92;44.80;100043.34;1658101;85;20192;-67
2022/07/14 10:18:16;;;;;;;;;;;;;;;24.92;44.62;100059.73;1657861;85;20449;-68
2022/07/14 10:20:45;;;;;;;;;;;;;;;24.93;44.16;100042.75;1656379;85;20135;-67
2022/07/14 10:23:11;;;;;;;;;;;;;;;24.97;44.42;100061.35;1657438;85;21062;-67
2022/07/14 10:25:39;;;;;;;;;;;;;;;25.06;44.78;100049.59;1658380;85;20175;-67
2022/07/14 10:28:05;;;;;;;;;;;;;;;25.18;44.65;100055.47;1658935;86;20147;-67
2022/07/14 10:30:36;;;;;;;;;;;;;;;25.35;44.08;100048.69;1657549;85;20446;-67
2022/07/14 10:33:15;;;;;;;;;;;;;;;25.12;43.92;100052.84;1658244;85;20171;-67
2022/07/14 10:35:56;;;;;;;;;;;;;;;25.13;43.77;100045.62;1654337;85;21587;-67
2022/07/14 10:38:55;;;;;;;;;;;;;;;25.10;44.15;100054.53;1653774;85;20173;-68
2022/07/14 10:41:48;;;;;;;;;;;;;;;25.02;44.47;100053.64;1658712;85;20453;-67
2022/07/14 10:44:22;;;;;;;;;;;;;;;24.98;44.46;100050.07;1657163;85;20188;-68
2022/07/14 10:46:50;;;;;;;;;;;;;;;24.96;45.10;100056.47;1652358;85;20451;-68
2022/07/14 10:49:17;;;;;;;;;;;;;;;24.95;44.89;100057.63;1658252;85;21130;-68
2022/07/14 10:51:49;;;;;;;;;;;;;;;25.00;45.00;100060.03;1658461;86;20193;-67
2022/07/14 10:54:21;;;;;;;;;;;;;;;25.11;45.43;100065.69;1657489;86;20197;-67
2022/07/14 10:56:49;;;;;;;;;;;;;;;25.21;45.86;100065.09;1633672;86;20330;-68
2022/07/14 10:59:30;;;;;;;;;;;;;;;25.31;45.33;100049.22;1657768;85;20193;-67
2022/07/14 11:02:14;;;;;;;;;;;;;;;25.44;44.92;100054.09;1656312;85;21288;-67
2022/07/14 11:05:04;;;;;;;;;;;;;;;25.63;44.29;100055.10;1659204;86;20172;-68
2022/07/14 11:07:46;;;;;;;;;;;;;;;25.75;44.13;100048.04;1658830;85;20139;-68
2022/07/14 11:10:25;;;;;;;;;;;;;;;25.85;44.04;100046.04;1659139;86;20158;-67
2022/07/14 11:13:01;;;;;;;;;;;;;;;25.89;43.11;100046.08;1658444;85;20518;-68
2022/07/14 11:15:43;;;;;;;;;;;;;;;25.92;42.61;100040.64;1651312;85;21193;-68
2022/07/14 11:18:24;;;;;;;;;;;;;;;25.99;42.74;100046.78;1656537;85;20566;-67
2022/07/14 11:20:55;;;;;;;;;;;;;;;26.16;42.88;100046.21;1658336;85;20163;-68
2022/07/14 11:23:25;;;;;;;;;;;;;;;26.32;42.35;100041.85;1657348;85;20447;-68
2022/07/14 11:25:53;;;;;;;;;;;;;;;26.36;42.18;100037.81;1657965;85;20263;-67
2022/07/14 11:28:44;;;;;;;;;;;;;;;26.32;41.95;100046.55;1657530;85;21952;-68
2022/07/14 11:31:17;;;;;;;;;;;;;;;26.33;42.58;100054.98;1657139;85;20199;-69
2022/07/14 11:36:32;;;;;;;;;;;;;;;26.59;42.05;100036.29;1657377;85;20552;-69
2022/07/14 11:39:20;;;;;;;;;;;;;;;26.69;41.82;100030.67;1658371;85;20216;-68
2022/07/14 11:41:50;;;;;;;;;;;;;;;26.76;42.26;100032.12;1643618;85;21244;-69
2022/07/14 11:44:39;;;;;;;;;;;;;;;26.82;41.22;100041.57;1653645;85;20210;-68
2022/07/14 11:47:29;;;;;;;;;;;;;;;26.79;40.68;100028.03;1656884;85;20178;-68
2022/07/14 11:50:09;;;;;;;;;;;;;;;26.97;40.19;100032.27;1658055;85;20189;-68
2022/07/14 11:52:40;;;;;;;;;;;;;;;26.89;39.72;100027.33;1658026;85;20241;-68
2022/07/14 11:55:10;;;;;;;;;;;;;;;26.82;40.56;100032.76;1661366;85;21308;-67
2022/07/14 11:57:37;;;;;;;;;;;;;;;26.77;39.25;100035.84;1675123;85;20169;-68
2022/07/14 12:00:08;;;;;;;;;;;;;;;26.79;39.50;100039.59;1663909;85;20178;-67
2022/07/14 12:02:41;;;;;;;;;;;;;;;26.83;39.46;100027.47;1658923;86;20166;-68
2022/07/14 12:05:09;;;;;;;;;;;;;;;26.88;39.89;100029.88;1657141;86;20167;-68
2022/07/14 12:07:45;;;;;;;;;;;;;;;26.96;39.55;100033.45;1642477;86;21153;-68
2022/07/14 12:10:12;;;;;;;;;;;;;;;27.07;39.84;100029.40;1658637;86;20179;-68
2022/07/14 12:12:43;;;;;;;;;;;;;;;27.27;39.45;100026.61;1658068;85;20190;-68
2022/07/14 12:15:09;;;;;;;;;;;;;;;27.48;38.58;100030.66;1657741;85;20147;-68
2022/07/14 12:17:47;;;;;;;;;;;;;;;27.64;38.89;100033.87;1657672;85;20154;-68
2022/07/14 12:20:18;;;;;;;;;;;;;;;27.69;38.13;100021.73;1657187;85;21156;-68
2022/07/14 12:22:47;;;;;;;;;;;;;;;27.58;38.33;100036.19;1670907;85;20220;-68
2022/07/14 12:25:33;;;;;;;;;;;;;;;27.54;38.30;100033.21;1672959;84;20443;-68
2022/07/14 12:28:00;;;;;;;;;;;;;;;27.55;38.55;100034.22;1674171;84;20572;-68
2022/07/14 12:30:45;;;;;;;;;;;;;;;27.54;38.26;100032.66;1673956;84;20176;-68
2022/07/14 12:33:12;;;;;;;;;;;;;;;27.51;38.51;100028.49;1674901;84;21549;-68
2022/07/14 12:35:40;;;;;;;;;;;;;;;27.53;38.85;100035.77;1674067;84;20204;-67
2022/07/14 12:38:09;;;;;;;;;;;;;;;27.59;38.58;100042.46;1673807;84;20256;-67
2022/07/14 12:40:35;;;;;;;;;;;;;;;27.74;39.05;100044.11;1666249;84;20167;-68
2022/07/14 12:43:03;;;;;;;;;;;;;;;27.87;37.83;100042.39;1672823;84;20137;-68
2022/07/14 12:45:30;;;;;;;;;;;;;;;27.89;36.59;100041.43;1670530;84;21177;-68
2022/07/14 12:48:01;;;;;;;;;;;;;;;27.85;35.84;100037.31;1674625;84;20172;-67
2022/07/14 12:50:25;;;;;;;;;;;;;;;27.80;34.89;100037.08;1669683;84;20163;-68
2022/07/14 12:52:54;;;;;;;;;;;;;;;27.74;35.76;100044.11;1673972;84;20232;-68
2022/07/14 12:55:38;;;;;;;;;;;;;;;27.72;35.91;100040.16;1673199;84;20173;-68
2022/07/14 12:58:06;;;;;;;;;;;;;;;27.74;35.94;100041.36;1673976;84;21269;-68
2022/07/14 13:00:34;;;;;;;;;;;;;;;27.87;35.90;100025.92;1673563;84;38533;-67
2022/07/14 13:03:15;;;;;;;;;;;;;;;27.98;35.36;100025.39;1674220;84;20161;-66
2022/07/14 13:05:55;;;;;;;;;;;;;;;28.11;33.73;100034.05;1666214;84;20234;-67
2022/07/14 13:08:37;;;;;;;;;;;;;;;28.01;33.67;100036.38;1672103;84;20146;-68